createdAt,value
2023-01-27T00:00:34.915Z,102329.16
2023-01-27T00:03:01.442Z,102330.22
2023-01-27T00:05:27.936Z,102327.78
2023-01-27T00:07:58.363Z,102328.84
2023-01-27T00:10:26.278Z,102323.59
2023-01-27T00:13:11.450Z,102325.47
2023-01-27T00:15:38.125Z,102325.53
2023-01-27T00:18:04.916Z,102321.97
2023-01-27T00:20:50.063Z,102328.31
2023-01-27T00:23:38.073Z,102329.25
2023-01-27T00:26:06.889Z,102327.56
2023-01-27T00:28:34.747Z,102330.25
2023-01-27T00:31:01.455Z,102335.59
2023-01-27T00:33:28.630Z,102330.25
2023-01-27T00:36:00.112Z,102332.94
2023-01-27T00:38:28.263Z,102327.56
2023-01-27T00:41:13.961Z,102329.38
2023-01-27T00:43:40.729Z,102333.00
2023-01-27T00:46:08.208Z,102339.22
2023-01-27T00:48:35.397Z,102337.41
2023-01-27T00:51:03.172Z,102333.84
2023-01-27T00:53:30.557Z,102333.06
2023-01-27T00:56:00.495Z,102333.97
2023-01-27T00:58:28.993Z,102332.19
2023-01-27T01:01:00.714Z,102342.88
2023-01-27T01:03:31.911Z,102337.59
2023-01-27T01:05:59.546Z,102351.03
2023-01-27T01:08:26.444Z,102349.28
2023-01-27T01:10:53.302Z,102337.72
2023-01-27T01:13:21.542Z,102341.25
2023-01-27T01:15:48.477Z,102345.75
2023-01-27T01:18:15.923Z,102345.75
2023-01-27T01:20:43.992Z,102353.78
2023-01-27T01:23:11.619Z,102360.06
2023-01-27T01:25:38.649Z,102360.06
2023-01-27T01:28:07.553Z,102364.50
2023-01-27T01:30:36.379Z,102358.25
2023-01-27T01:33:04.957Z,102367.16
2023-01-27T01:35:32.096Z,102366.16
2023-01-27T01:37:58.689Z,102360.81
2023-01-27T01:40:25.874Z,102359.94
2023-01-27T01:42:56.879Z,102360.00
2023-01-27T01:45:48.433Z,102364.59
2023-01-27T01:48:21.412Z,102365.47
2023-01-27T01:50:59.094Z,102368.28
2023-01-27T01:53:33.955Z,102371.88
2023-01-27T01:56:06.929Z,102368.31
2023-01-27T01:58:34.638Z,102362.16
2023-01-27T02:01:04.026Z,102377.28
2023-01-27T02:03:32.473Z,102374.63
2023-01-27T02:05:59.052Z,102370.19
2023-01-27T02:08:30.789Z,102375.66
2023-01-27T02:10:58.293Z,102372.97
2023-01-27T02:13:25.032Z,102377.47
2023-01-27T02:15:53.897Z,102377.59
2023-01-27T02:18:21.162Z,102372.28
2023-01-27T02:20:50.524Z,102378.56
2023-01-27T02:23:40.573Z,102381.25
2023-01-27T02:26:20.984Z,102383.91
2023-01-27T02:29:12.709Z,102379.50
2023-01-27T02:31:39.985Z,102397.38
2023-01-27T02:34:11.681Z,102392.03
2023-01-27T02:36:44.993Z,102396.50
2023-01-27T02:39:15.143Z,102402.75
2023-01-27T02:41:49.930Z,102397.38
2023-01-27T02:44:16.638Z,102400.03
2023-01-27T02:46:44.020Z,102392.00
2023-01-27T02:49:11.086Z,102392.88
2023-01-27T02:51:37.669Z,102391.94
2023-01-27T02:54:05.288Z,102389.28
2023-01-27T02:56:32.204Z,102393.69
2023-01-27T02:58:58.752Z,102395.44
2023-01-27T03:01:32.653Z,102387.41
2023-01-27T03:04:00.183Z,102402.59
2023-01-27T03:06:26.738Z,102390.16
2023-01-27T03:08:53.532Z,102399.13
2023-01-27T03:11:40.319Z,102392.81
2023-01-27T03:14:08.583Z,102389.28
2023-01-27T03:16:54.432Z,102402.66
2023-01-27T03:19:20.950Z,102400.91
2023-01-27T03:21:51.080Z,102399.13
2023-01-27T03:24:18.559Z,102405.41
2023-01-27T03:26:45.669Z,102402.75
2023-01-27T03:29:33.085Z,102402.75
2023-01-27T03:32:00.882Z,102404.53
2023-01-27T03:34:29.038Z,102402.78
2023-01-27T03:37:22.358Z,102411.69
2023-01-27T03:40:09.185Z,102414.44
2023-01-27T03:42:54.255Z,102421.59
2023-01-27T03:45:39.419Z,102417.16
2023-01-27T03:48:06.102Z,102430.56
2023-01-27T03:50:38.295Z,102434.16
2023-01-27T03:53:05.592Z,102434.16
2023-01-27T03:55:34.257Z,102439.50
2023-01-27T03:58:14.536Z,102444.88
2023-01-27T04:00:41.324Z,102444.88
2023-01-27T04:03:26.473Z,102448.47
2023-01-27T04:06:11.537Z,102449.44
2023-01-27T04:08:38.048Z,102441.53
2023-01-27T04:11:41.083Z,102438.91
2023-01-27T04:14:09.323Z,102441.66
2023-01-27T04:16:38.932Z,102439.91
2023-01-27T04:19:08.717Z,102438.22
2023-01-27T04:21:35.618Z,102439.16
2023-01-27T04:24:03.823Z,102438.28
2023-01-27T04:26:34.490Z,102440.09
2023-01-27T04:29:02.608Z,102438.28
2023-01-27T04:31:29.382Z,102453.47
2023-01-27T04:33:56.090Z,102437.47
2023-01-27T04:36:22.855Z,102451.72
2023-01-27T04:38:49.599Z,102438.38
2023-01-27T04:41:16.138Z,102441.88
2023-01-27T04:43:42.797Z,102441.88
2023-01-27T04:46:09.788Z,102442.75
2023-01-27T04:48:36.378Z,102443.63
2023-01-27T04:51:02.945Z,102449.97
2023-01-27T04:53:29.466Z,102446.47
2023-01-27T04:56:03.247Z,102452.75
2023-01-27T04:58:29.833Z,102457.22
2023-01-27T05:00:56.419Z,102455.47
2023-01-27T05:03:23.162Z,102454.66
2023-01-27T05:05:49.754Z,102456.47
2023-01-27T05:08:16.231Z,102463.59
2023-01-27T05:10:45.010Z,102466.22
2023-01-27T05:13:12.289Z,102460.88
2023-01-27T05:15:38.916Z,102464.44
2023-01-27T05:18:05.591Z,102464.44
2023-01-27T05:20:32.262Z,102462.69
2023-01-27T05:23:18.722Z,102469.78
2023-01-27T05:25:45.364Z,102457.28
2023-01-27T05:28:12.481Z,102465.34
2023-01-27T05:30:39.381Z,102470.75
2023-01-27T05:33:05.957Z,102466.38
2023-01-27T05:35:33.407Z,102468.19
2023-01-27T05:38:00.294Z,102464.63
2023-01-27T05:40:27.179Z,102469.06
2023-01-27T05:42:54.202Z,102465.41
2023-01-27T05:45:21.022Z,102485.78
2023-01-27T05:47:51.454Z,102479.50
2023-01-27T05:50:19.053Z,102482.13
2023-01-27T05:52:45.841Z,102481.19
2023-01-27T05:55:12.807Z,102474.03
2023-01-27T05:57:39.562Z,102486.53
2023-01-27T06:00:06.773Z,102485.63
2023-01-27T06:02:34.789Z,102482.94
2023-01-27T06:05:01.360Z,102484.69
2023-01-27T06:07:27.905Z,102488.19
2023-01-27T06:09:54.467Z,102495.25
2023-01-27T06:12:21.037Z,102488.97
2023-01-27T06:14:47.599Z,102490.75
2023-01-27T06:17:14.608Z,102493.44
2023-01-27T06:19:41.098Z,102491.59
2023-01-27T06:22:07.599Z,102492.50
2023-01-27T06:24:34.112Z,102494.25
2023-01-27T06:27:00.586Z,102494.25
2023-01-27T06:29:27.199Z,102489.75
2023-01-27T06:31:53.769Z,102496.84
2023-01-27T06:34:20.450Z,102493.31
2023-01-27T06:36:46.923Z,102502.22
2023-01-27T06:39:13.462Z,102503.09
2023-01-27T06:41:40.742Z,102503.09
2023-01-27T06:44:07.320Z,102505.75
2023-01-27T06:46:34.301Z,102508.44
2023-01-27T06:49:00.829Z,102510.25
2023-01-27T06:51:27.390Z,102512.91
2023-01-27T06:53:53.948Z,102506.63
2023-01-27T06:56:20.510Z,102512.03
2023-01-27T06:58:47.017Z,102519.19
2023-01-27T07:01:13.623Z,102516.53
2023-01-27T07:03:41.148Z,102513.84
2023-01-27T07:06:10.988Z,102512.03
2023-01-27T07:08:42.045Z,102514.72
2023-01-27T07:11:08.611Z,102521.00
2023-01-27T07:13:35.133Z,102523.69
2023-01-27T07:16:01.809Z,102521.03
2023-01-27T07:18:28.723Z,102524.56
2023-01-27T07:20:55.187Z,102517.41
2023-01-27T07:23:21.699Z,102524.50
2023-01-27T07:25:48.496Z,102528.91
2023-01-27T07:28:14.987Z,102528.91
2023-01-27T07:30:43.235Z,102529.84
2023-01-27T07:33:12.147Z,102530.72
2023-01-27T07:35:39.825Z,102542.34
2023-01-27T07:38:07.264Z,102545.03
2023-01-27T07:40:34.763Z,102549.47
2023-01-27T07:43:02.346Z,102551.25
2023-01-27T07:45:30.320Z,102540.56
2023-01-27T07:48:01.299Z,102554.81
2023-01-27T07:50:27.944Z,102555.69
2023-01-27T07:52:54.475Z,102556.63
2023-01-27T07:55:21.020Z,102554.81
2023-01-27T07:57:47.491Z,102559.25
2023-01-27T08:00:15.469Z,102563.66
2023-01-27T08:02:42.286Z,102558.25
2023-01-27T08:05:09.168Z,102554.72
2023-01-27T08:07:35.642Z,102567.16
2023-01-27T08:10:02.178Z,102565.41
2023-01-27T08:12:28.680Z,102553.84
2023-01-27T08:14:55.203Z,102568.97
2023-01-27T08:17:21.681Z,102568.91
2023-01-27T08:19:50.520Z,102567.09
2023-01-27T08:22:21.178Z,102570.66
2023-01-27T08:24:48.882Z,102567.06
2023-01-27T08:27:16.134Z,102566.19
2023-01-27T08:29:43.000Z,102561.72
2023-01-27T08:32:10.847Z,102572.47
2023-01-27T08:34:38.958Z,102571.63
2023-01-27T08:37:06.665Z,102578.75
2023-01-27T08:39:33.929Z,102572.47
2023-01-27T08:42:00.712Z,102571.44
2023-01-27T08:44:28.390Z,102570.44
2023-01-27T08:46:55.355Z,102579.22
2023-01-27T08:49:21.837Z,102582.72
2023-01-27T08:51:48.326Z,102588.84
2023-01-27T08:54:14.863Z,102596.72
2023-01-27T08:56:41.385Z,102598.44
2023-01-27T08:59:07.932Z,102597.41
2023-01-27T09:01:34.576Z,102602.63
2023-01-27T09:04:01.227Z,102587.34
2023-01-27T09:06:27.795Z,102595.31
2023-01-27T09:09:11.505Z,102602.38
2023-01-27T09:11:41.422Z,102598.75
2023-01-27T09:14:08.370Z,102599.69
2023-01-27T09:16:35.018Z,102596.16
2023-01-27T09:19:01.827Z,102605.06
2023-01-27T09:21:28.358Z,102606.81
2023-01-27T09:23:54.981Z,102613.03
2023-01-27T09:26:21.921Z,102608.50
2023-01-27T09:28:48.491Z,102609.22
2023-01-27T09:31:15.186Z,102614.34
2023-01-27T09:33:41.800Z,102615.81
2023-01-27T09:36:15.590Z,102624.50
2023-01-27T09:38:48.519Z,102623.44
2023-01-27T09:41:45.396Z,102623.34
2023-01-27T09:44:57.036Z,102621.53
2023-01-27T09:47:41.981Z,102624.22
2023-01-27T09:50:24.929Z,102625.16
2023-01-27T09:53:25.359Z,102622.53
2023-01-27T09:56:03.842Z,102631.50
2023-01-27T09:58:39.661Z,102632.41
2023-01-27T10:01:43.227Z,102637.84
2023-01-27T10:04:15.880Z,102640.53
2023-01-27T10:06:49.442Z,102628.91
2023-01-27T10:09:45.484Z,102635.09
2023-01-27T10:12:42.541Z,102638.66
2023-01-27T10:15:16.790Z,102634.06
2023-01-27T10:17:55.353Z,102638.44
2023-01-27T10:20:33.511Z,102631.28
2023-01-27T10:23:20.231Z,102647.34
2023-01-27T10:26:16.616Z,102635.03
2023-01-27T10:28:49.176Z,102635.91
2023-01-27T10:31:26.875Z,102645.81
2023-01-27T10:33:56.203Z,102636.09
2023-01-27T10:36:42.583Z,102634.41
2023-01-27T10:39:36.488Z,102623.72
2023-01-27T10:42:12.799Z,102630.03
2023-01-27T10:45:08.225Z,102623.75
2023-01-27T10:47:40.016Z,102611.22
2023-01-27T10:50:13.632Z,102618.31
2023-01-27T10:52:46.609Z,102621.81
2023-01-27T10:55:54.993Z,102613.66
2023-01-27T10:58:45.623Z,102619.69
2023-01-27T11:01:22.659Z,102615.91
2023-01-27T11:03:56.449Z,102616.53
2023-01-27T11:06:28.645Z,102613.69
2023-01-27T11:09:15.870Z,102621.63
2023-01-27T11:11:45.750Z,102612.53
2023-01-27T11:14:25.543Z,102609.72
2023-01-27T11:16:58.043Z,102610.50
2023-01-27T11:19:46.039Z,102612.25
2023-01-27T11:22:20.038Z,102618.47
2023-01-27T11:24:53.886Z,102618.47
2023-01-27T11:27:31.378Z,102612.13
2023-01-27T11:30:04.015Z,102614.69
2023-01-27T11:32:55.698Z,102617.38
2023-01-27T11:35:22.696Z,102612.81
2023-01-27T11:37:52.667Z,102610.13
2023-01-27T11:40:31.631Z,102605.75
2023-01-27T11:42:59.801Z,102607.63
2023-01-27T11:45:28.225Z,102606.81
2023-01-27T11:47:59.975Z,102606.94
2023-01-27T11:50:34.531Z,102613.22
2023-01-27T11:53:14.787Z,102605.25
2023-01-27T11:55:46.951Z,102605.19
2023-01-27T11:58:25.179Z,102605.19
2023-01-27T12:01:00.058Z,102609.63
2023-01-27T12:03:41.788Z,102606.00
2023-01-27T12:06:46.926Z,102598.06
2023-01-27T12:09:39.378Z,102605.13
2023-01-27T12:12:20.618Z,102601.50
2023-01-27T12:14:58.842Z,102593.41
2023-01-27T12:17:31.553Z,102596.84
2023-01-27T12:20:06.428Z,102591.44
2023-01-27T12:22:37.561Z,102591.38
2023-01-27T12:25:08.358Z,102580.56
2023-01-27T12:27:57.805Z,102585.06
2023-01-27T12:30:28.708Z,102585.00
2023-01-27T12:32:56.393Z,102588.56
2023-01-27T12:35:34.785Z,102579.75
2023-01-27T12:38:05.078Z,102576.16
2023-01-27T12:40:34.206Z,102578.78
2023-01-27T12:43:20.212Z,102570.66
2023-01-27T12:46:05.575Z,102576.84
2023-01-27T12:48:36.522Z,102573.22
2023-01-27T12:51:52.331Z,102573.22
2023-01-27T12:54:22.052Z,102566.88
2023-01-27T12:56:54.348Z,102563.38
2023-01-27T12:59:24.309Z,102571.41
2023-01-27T13:02:19.089Z,102562.63
2023-01-27T13:04:56.146Z,102559.00
2023-01-27T13:07:29.856Z,102567.97
2023-01-27T13:10:02.423Z,102569.78
2023-01-27T13:12:35.314Z,102563.63
2023-01-27T13:15:20.582Z,102569.91
2023-01-27T13:17:49.374Z,102568.09
2023-01-27T13:20:24.921Z,102566.34
2023-01-27T13:22:54.801Z,102568.16
2023-01-27T13:25:26.948Z,102565.41
2023-01-27T13:27:58.113Z,102570.91
2023-01-27T13:30:34.097Z,102565.59
2023-01-27T13:33:23.938Z,102566.53
2023-01-27T13:36:20.763Z,102565.53
2023-01-27T13:38:58.505Z,102573.47
2023-01-27T13:41:36.128Z,102571.66
2023-01-27T13:44:25.436Z,102568.84
2023-01-27T13:46:56.688Z,102568.78
2023-01-27T13:49:33.354Z,102573.22
2023-01-27T13:51:59.941Z,102570.47
2023-01-27T13:54:27.516Z,102578.41
2023-01-27T13:57:12.062Z,102574.03
2023-01-27T13:59:59.781Z,102579.47
2023-01-27T14:02:42.012Z,102573.28
2023-01-27T14:05:23.535Z,102575.97
2023-01-27T14:08:09.211Z,102578.66
2023-01-27T14:11:20.586Z,102577.72
2023-01-27T14:14:06.609Z,102583.03
2023-01-27T14:16:57.274Z,102576.78
2023-01-27T14:20:01.178Z,102579.47
2023-01-27T14:22:44.489Z,102578.66
2023-01-27T14:25:23.347Z,102584.06
2023-01-27T14:28:08.252Z,102585.00
2023-01-27T14:30:42.122Z,102584.06
2023-01-27T14:33:26.767Z,102596.56
2023-01-27T14:35:59.187Z,102593.94
2023-01-27T14:38:34.495Z,102594.91
2023-01-27T14:41:28.785Z,102594.97
2023-01-27T14:44:44.362Z,102593.16
2023-01-27T14:47:56.266Z,102594.22
2023-01-27T14:50:47.117Z,102602.38
2023-01-27T14:53:16.494Z,102599.75
2023-01-27T14:55:58.437Z,102601.69
2023-01-27T14:58:27.957Z,102604.47
2023-01-27T15:00:57.227Z,102606.34
2023-01-27T15:04:05.294Z,102606.47
2023-01-27T15:06:52.879Z,102617.31
2023-01-27T15:09:45.299Z,102618.22
2023-01-27T15:12:30.277Z,102616.50
2023-01-27T15:15:42.731Z,102621.03
2023-01-27T15:18:29.050Z,102631.00
2023-01-27T15:21:07.718Z,102633.78
2023-01-27T15:23:34.179Z,102633.84
2023-01-27T15:26:06.629Z,102627.66
2023-01-27T15:28:36.611Z,102641.06
2023-01-27T15:31:23.864Z,102637.50
2023-01-27T15:33:54.941Z,102646.41
2023-01-27T15:36:27.366Z,102650.91
2023-01-27T15:39:02.806Z,102641.06
2023-01-27T15:41:29.654Z,102644.63
2023-01-27T15:44:25.367Z,102641.94
2023-01-27T15:46:54.478Z,102645.50
2023-01-27T15:49:24.577Z,102658.91
2023-01-27T15:51:53.769Z,102651.84
2023-01-27T15:54:27.954Z,102654.56
2023-01-27T15:56:55.777Z,102658.19
2023-01-27T15:59:25.504Z,102657.31
2023-01-27T16:02:18.892Z,102653.75
2023-01-27T16:04:54.024Z,102649.31
2023-01-27T16:07:28.997Z,102651.25
2023-01-27T16:09:58.177Z,102655.78
2023-01-27T16:12:26.974Z,102668.34
2023-01-27T16:15:16.647Z,102654.22
2023-01-27T16:18:01.599Z,102667.59
2023-01-27T16:20:34.154Z,102665.84
2023-01-27T16:23:06.652Z,102670.34
2023-01-27T16:26:17.723Z,102675.81
2023-01-27T16:28:48.330Z,102674.94
2023-01-27T16:31:18.448Z,102673.19
2023-01-27T16:33:47.228Z,102673.19
2023-01-27T16:36:32.124Z,102674.97
2023-01-27T16:39:24.695Z,102676.72
2023-01-27T16:41:55.101Z,102679.38
2023-01-27T16:44:39.949Z,102687.34
2023-01-27T16:47:18.850Z,102688.16
2023-01-27T16:49:45.741Z,102687.25
2023-01-27T16:52:35.891Z,102700.63
2023-01-27T16:55:21.790Z,102691.66
2023-01-27T16:57:49.372Z,102699.72
2023-01-27T17:00:23.186Z,102712.28
2023-01-27T17:02:52.153Z,102708.63
2023-01-27T17:05:20.185Z,102708.63
2023-01-27T17:08:16.940Z,102715.78
2023-01-27T17:11:05.209Z,102714.91
2023-01-27T17:13:35.568Z,102707.75
2023-01-27T17:16:06.181Z,102721.16
2023-01-27T17:18:51.719Z,102704.19
2023-01-27T17:22:06.544Z,102716.72
2023-01-27T17:24:36.648Z,102721.13
2023-01-27T17:27:18.158Z,102717.63
2023-01-27T17:29:47.333Z,102708.69
2023-01-27T17:32:24.481Z,102721.19
2023-01-27T17:34:53.468Z,102722.06
2023-01-27T17:37:21.962Z,102717.63
2023-01-27T17:39:54.270Z,102730.16
2023-01-27T17:42:21.831Z,102734.69
2023-01-27T17:44:49.016Z,102725.84
2023-01-27T17:47:18.000Z,102729.44
2023-01-27T17:49:51.139Z,102729.50
2023-01-27T17:52:23.920Z,102727.75
2023-01-27T17:54:52.320Z,102730.41
2023-01-27T17:57:27.212Z,102733.97
2023-01-27T17:59:59.349Z,102732.16
2023-01-27T18:02:33.602Z,102738.41
2023-01-27T18:05:05.900Z,102738.47
2023-01-27T18:07:33.139Z,102736.72
2023-01-27T18:09:59.801Z,102740.31
2023-01-27T18:12:35.431Z,102735.97
2023-01-27T18:15:40.622Z,102744.03
2023-01-27T18:18:21.691Z,102738.72
2023-01-27T18:20:57.321Z,102738.75
2023-01-27T18:23:27.847Z,102742.38
2023-01-27T18:26:13.237Z,102746.03
2023-01-27T18:28:41.262Z,102743.41
2023-01-27T18:31:22.086Z,102754.22
2023-01-27T18:34:16.314Z,102746.13
2023-01-27T18:36:58.346Z,102747.00
2023-01-27T18:39:33.945Z,102750.56
2023-01-27T18:42:01.848Z,102748.81
2023-01-27T18:44:35.271Z,102753.28
2023-01-27T18:47:23.255Z,102758.66
2023-01-27T18:49:55.972Z,102759.53
2023-01-27T18:52:23.063Z,102767.56
2023-01-27T18:54:54.804Z,102772.03
2023-01-27T18:57:21.494Z,102771.16
2023-01-27T18:59:48.082Z,102777.44
2023-01-27T19:02:15.831Z,102784.59
2023-01-27T19:04:43.398Z,102779.25
2023-01-27T19:07:18.212Z,102776.56
2023-01-27T19:09:46.256Z,102779.25
2023-01-27T19:12:12.903Z,102781.09
2023-01-27T19:14:41.905Z,102791.84
2023-01-27T19:17:24.081Z,102791.84
2023-01-27T19:19:50.770Z,102794.53
2023-01-27T19:22:20.651Z,102798.13
2023-01-27T19:24:47.235Z,102803.53
2023-01-27T19:27:15.394Z,102800.91
2023-01-27T19:29:42.600Z,102799.13
2023-01-27T19:32:14.411Z,102795.56
2023-01-27T19:34:41.527Z,102801.84
2023-01-27T19:37:19.002Z,102794.72
2023-01-27T19:39:46.516Z,102796.59
2023-01-27T19:42:15.228Z,102799.31
2023-01-27T19:44:42.521Z,102799.34
2023-01-27T19:47:13.719Z,102805.69
2023-01-27T19:49:41.297Z,102803.06
2023-01-27T19:52:07.836Z,102806.66
2023-01-27T19:54:34.628Z,102809.28
2023-01-27T19:57:01.403Z,102808.41
2023-01-27T19:59:28.621Z,102814.69
2023-01-27T20:01:56.676Z,102820.91
2023-01-27T20:04:23.765Z,102817.38
2023-01-27T20:06:50.423Z,102815.50
2023-01-27T20:09:17.343Z,102819.91
2023-01-27T20:11:44.543Z,102813.66
2023-01-27T20:14:14.183Z,102818.16
2023-01-27T20:16:42.066Z,102827.06
2023-01-27T20:19:09.043Z,102814.59
2023-01-27T20:21:35.668Z,102816.34
2023-01-27T20:24:02.344Z,102825.31
2023-01-27T20:26:32.578Z,102818.16
2023-01-27T20:28:59.542Z,102820.81
2023-01-27T20:31:26.285Z,102816.38
2023-01-27T20:33:52.899Z,102808.34
2023-01-27T20:36:23.699Z,102821.59
2023-01-27T20:38:51.401Z,102817.84
2023-01-27T20:41:20.788Z,102819.50
2023-01-27T20:43:47.941Z,102820.25
2023-01-27T20:46:17.277Z,102819.22
2023-01-27T20:48:44.512Z,102821.75
2023-01-27T20:51:15.897Z,102816.19
2023-01-27T20:53:45.548Z,102818.72
2023-01-27T20:56:21.487Z,102815.91
2023-01-27T20:58:48.910Z,102815.81
2023-01-27T21:01:18.375Z,102816.59
2023-01-27T21:03:45.467Z,102818.38
2023-01-27T21:06:13.667Z,102818.38
2023-01-27T21:08:40.243Z,102818.38
2023-01-27T21:11:10.803Z,102820.16
2023-01-27T21:13:37.559Z,102813.94
2023-01-27T21:16:04.213Z,102821.09
2023-01-27T21:18:30.805Z,102822.91
2023-01-27T21:21:02.527Z,102814.00
2023-01-27T21:23:29.171Z,102817.59
2023-01-27T21:25:55.754Z,102822.09
2023-01-27T21:28:22.439Z,102823.00
2023-01-27T21:30:48.991Z,102822.25
2023-01-27T21:33:15.585Z,102817.81
2023-01-27T21:35:42.124Z,102813.38
2023-01-27T21:38:08.687Z,102814.34
2023-01-27T21:40:35.450Z,102816.34
2023-01-27T21:43:20.721Z,102809.34
2023-01-27T21:45:58.256Z,102811.25
2023-01-27T21:48:24.789Z,102811.34
2023-01-27T21:50:51.748Z,102804.28
2023-01-27T21:53:18.420Z,102802.56
2023-01-27T21:55:45.094Z,102807.97
2023-01-27T21:58:11.723Z,102804.31
2023-01-27T22:00:38.424Z,102807.81
2023-01-27T22:03:04.933Z,102806.06
2023-01-27T22:05:34.040Z,102804.31
2023-01-27T22:08:03.645Z,102809.78
2023-01-27T22:10:30.626Z,102800.97
2023-01-27T22:12:58.853Z,102804.59
2023-01-27T22:15:30.392Z,102797.59
2023-01-27T22:17:58.408Z,102806.59
2023-01-27T22:20:25.640Z,102803.16
2023-01-27T22:22:52.542Z,102804.91
2023-01-27T22:25:19.900Z,102795.06
2023-01-27T22:27:46.783Z,102793.31
2023-01-27T22:30:18.470Z,102802.31
2023-01-27T22:32:46.972Z,102798.72
2023-01-27T22:35:16.010Z,102795.16
2023-01-27T22:37:43.348Z,102797.00
2023-01-27T22:40:11.351Z,102794.38
2023-01-27T22:42:40.174Z,102791.75
2023-01-27T22:45:10.856Z,102796.28
2023-01-27T22:47:37.721Z,102794.53
2023-01-27T22:50:04.838Z,102786.47
2023-01-27T22:52:31.454Z,102801.59
2023-01-27T22:54:58.118Z,102789.13
2023-01-27T22:57:30.180Z,102788.22
2023-01-27T22:59:58.138Z,102785.56
2023-01-27T23:02:29.838Z,102790.06
2023-01-27T23:05:04.227Z,102791.91
2023-01-27T23:07:34.663Z,102796.47
2023-01-27T23:10:02.644Z,102788.53
2023-01-27T23:12:29.998Z,102793.94
2023-01-27T23:14:58.976Z,102791.31
2023-01-27T23:17:25.696Z,102787.75
2023-01-27T23:19:52.367Z,102789.56
2023-01-27T23:22:19.126Z,102807.38
2023-01-27T23:24:45.742Z,102797.53
2023-01-27T23:27:12.420Z,102811.75
2023-01-27T23:29:39.063Z,102799.25
2023-01-27T23:32:06.089Z,102795.69
2023-01-27T23:34:32.814Z,102794.75
2023-01-27T23:36:59.541Z,102789.38
2023-01-27T23:39:26.271Z,102791.13
2023-01-27T23:41:52.970Z,102793.75
2023-01-27T23:44:19.689Z,102795.59
2023-01-27T23:46:46.338Z,102793.94
2023-01-27T23:49:13.126Z,102791.31
2023-01-27T23:51:40.025Z,102793.16
2023-01-27T23:54:06.803Z,102798.50
2023-01-27T23:56:33.516Z,102796.81
2023-01-27T23:59:00.171Z,102789.63
